createdAt,value
2018-09-25T00:01:49.239Z,36.64
2018-09-25T00:04:15.634Z,36.60
2018-09-25T00:06:41.948Z,36.47
2018-09-25T00:09:08.329Z,36.53
2018-09-25T00:11:34.660Z,36.43
2018-09-25T00:14:01.041Z,36.49
2018-09-25T00:16:27.408Z,36.48
2018-09-25T00:18:53.843Z,36.48
2018-09-25T00:21:20.280Z,36.44
2018-09-25T00:23:46.609Z,36.44
2018-09-25T00:26:12.937Z,36.32
2018-09-25T00:28:39.261Z,36.24
2018-09-25T00:31:05.645Z,36.24
2018-09-25T00:33:32.036Z,36.24
2018-09-25T00:35:58.361Z,36.15
2018-09-25T00:38:24.792Z,36.24
2018-09-25T00:40:51.127Z,36.27
2018-09-25T00:43:17.496Z,35.97
2018-09-25T00:45:43.890Z,36.04
2018-09-25T00:48:10.242Z,36.11
2018-09-25T00:50:36.588Z,36.19
2018-09-25T00:53:02.957Z,36.09
2018-09-25T00:55:29.263Z,36.25
2018-09-25T00:57:55.664Z,36.09
2018-09-25T01:00:21.991Z,36.16
2018-09-25T01:02:48.326Z,35.98
2018-09-25T01:05:14.694Z,35.97
2018-09-25T01:07:41.065Z,35.88
2018-09-25T01:10:07.469Z,36.07
2018-09-25T01:12:33.905Z,36.01
2018-09-25T01:15:00.240Z,36.06
2018-09-25T01:17:26.590Z,36.01
2018-09-25T01:19:52.921Z,35.92
2018-09-25T01:22:19.287Z,35.83
2018-09-25T01:24:45.753Z,35.82
2018-09-25T01:27:12.091Z,35.91
2018-09-25T01:29:38.458Z,35.86
2018-09-25T01:32:04.858Z,35.93
2018-09-25T01:34:31.243Z,35.81
2018-09-25T01:36:57.586Z,35.80
2018-09-25T01:39:23.912Z,35.74
2018-09-25T01:41:50.335Z,35.79
2018-09-25T01:44:16.847Z,35.81
2018-09-25T01:46:43.234Z,35.75
2018-09-25T01:49:09.571Z,35.90
2018-09-25T01:51:35.917Z,35.68
2018-09-25T01:54:02.248Z,35.89
2018-09-25T01:56:28.612Z,35.72
2018-09-25T01:58:54.964Z,35.78
2018-09-25T02:01:21.304Z,35.72
2018-09-25T02:03:47.660Z,35.78
2018-09-25T02:06:13.991Z,35.75
2018-09-25T02:08:40.355Z,35.72
2018-09-25T02:11:06.704Z,35.86
2018-09-25T02:13:34.039Z,35.72
2018-09-25T02:16:00.440Z,35.68
2018-09-25T02:18:26.812Z,35.63
2018-09-25T02:20:53.151Z,35.68
2018-09-25T02:23:19.497Z,35.58
2018-09-25T02:25:46.627Z,35.65
2018-09-25T02:28:12.956Z,35.67
2018-09-25T02:30:39.333Z,35.62
2018-09-25T02:33:05.712Z,35.68
2018-09-25T02:35:32.065Z,35.59
2018-09-25T02:37:58.450Z,35.57
2018-09-25T02:40:24.827Z,35.51
2018-09-25T02:42:51.163Z,35.67
2018-09-25T02:45:17.484Z,35.70
2018-09-25T02:47:43.835Z,35.65
2018-09-25T02:50:10.244Z,35.60
2018-09-25T02:52:36.678Z,35.47
2018-09-25T02:55:03.109Z,35.55
2018-09-25T02:57:29.448Z,35.51
2018-09-25T02:59:55.784Z,35.50
2018-09-25T03:02:22.168Z,35.64
2018-09-25T03:04:48.543Z,35.62
2018-09-25T03:07:14.870Z,35.58
2018-09-25T03:09:41.229Z,35.50
2018-09-25T03:12:07.563Z,35.47
2018-09-25T03:14:33.900Z,35.40
2018-09-25T03:17:00.389Z,35.30
2018-09-25T03:19:26.828Z,35.39
2018-09-25T03:21:53.086Z,35.31
2018-09-25T03:24:19.422Z,35.29
2018-09-25T03:26:45.760Z,35.26
2018-09-25T03:29:12.114Z,35.15
2018-09-25T03:31:38.526Z,35.12
2018-09-25T03:34:04.997Z,35.06
2018-09-25T03:36:31.430Z,35.00
2018-09-25T03:38:57.796Z,34.96
2018-09-25T03:41:24.224Z,34.95
2018-09-25T03:43:50.555Z,34.87
2018-09-25T03:46:16.883Z,34.83
2018-09-25T03:48:43.256Z,34.68
2018-09-25T03:51:09.611Z,34.74
2018-09-25T03:53:36.117Z,34.88
2018-09-25T03:56:02.478Z,34.84
2018-09-25T03:58:28.917Z,34.68
2018-09-25T04:00:55.315Z,34.92
2018-09-25T04:03:21.650Z,34.74
2018-09-25T04:05:48.105Z,34.74
2018-09-25T04:08:14.537Z,34.71
2018-09-25T04:10:40.944Z,34.72
2018-09-25T04:13:07.374Z,34.67
2018-09-25T04:15:33.782Z,34.68
2018-09-25T04:18:00.162Z,34.67
2018-09-25T04:20:26.574Z,34.62
2018-09-25T04:22:52.905Z,34.53
2018-09-25T04:25:19.307Z,34.54
2018-09-25T04:27:45.668Z,34.51
2018-09-25T04:30:12.200Z,34.42
2018-09-25T04:32:38.579Z,34.45
2018-09-25T04:35:05.021Z,34.38
2018-09-25T04:37:31.384Z,34.31
2018-09-25T04:39:57.775Z,34.25
2018-09-25T04:42:24.155Z,34.18
2018-09-25T04:44:50.517Z,33.96
2018-09-25T04:47:16.981Z,33.95
2018-09-25T04:49:43.308Z,33.92
2018-09-25T04:52:09.648Z,33.87
2018-09-25T04:54:36.043Z,33.78
2018-09-25T04:57:02.427Z,33.89
2018-09-25T04:59:28.806Z,33.56
2018-09-25T05:01:55.201Z,33.78
2018-09-25T05:04:21.536Z,33.70
2018-09-25T05:06:47.928Z,33.87
2018-09-25T05:09:14.304Z,33.51
2018-09-25T05:11:40.681Z,32.81
2018-09-25T05:14:07.068Z,32.25
2018-09-25T05:16:33.440Z,32.66
2018-09-25T05:18:59.985Z,32.62
2018-09-25T05:21:26.391Z,32.79
2018-09-25T05:23:52.785Z,32.41
2018-09-25T05:26:19.165Z,32.10
2018-09-25T05:28:45.592Z,32.12
2018-09-25T05:31:11.931Z,31.91
2018-09-25T05:33:38.405Z,32.05
2018-09-25T05:36:04.762Z,32.25
2018-09-25T05:38:31.118Z,32.38
2018-09-25T05:40:57.555Z,32.11
2018-09-25T05:43:23.941Z,32.13
2018-09-25T05:45:50.311Z,31.98
2018-09-25T05:48:16.710Z,31.92
2018-09-25T05:50:43.097Z,32.05
2018-09-25T05:53:09.448Z,31.93
2018-09-25T05:55:35.932Z,31.89
2018-09-25T05:58:02.350Z,31.79
2018-09-25T06:00:28.803Z,31.64
2018-09-25T06:02:55.233Z,31.91
2018-09-25T06:05:21.553Z,31.86
2018-09-25T06:07:48.003Z,31.82
2018-09-25T06:10:14.383Z,31.62
2018-09-25T06:12:40.788Z,31.73
2018-09-25T06:15:07.159Z,31.59
2018-09-25T06:17:33.529Z,31.59
2018-09-25T06:19:59.884Z,31.47
2018-09-25T06:22:26.292Z,31.41
2018-09-25T06:24:52.643Z,31.27
2018-09-25T06:27:19.161Z,31.33
2018-09-25T06:29:45.555Z,31.52
2018-09-25T06:32:14.276Z,31.38
2018-09-25T06:34:40.758Z,31.14
2018-09-25T06:37:07.089Z,31.17
2018-09-25T06:39:33.431Z,31.32
2018-09-25T06:41:59.774Z,31.16
2018-09-25T06:44:26.363Z,31.14
2018-09-25T06:46:52.722Z,31.15
2018-09-25T06:49:19.140Z,31.32
2018-09-25T06:51:45.576Z,31.33
2018-09-25T06:54:11.980Z,31.24
2018-09-25T06:56:38.406Z,31.11
2018-09-25T06:59:04.840Z,31.57
2018-09-25T07:01:31.280Z,30.88
2018-09-25T07:03:57.718Z,31.03
2018-09-25T07:06:24.137Z,31.42
2018-09-25T07:08:51.305Z,31.07
2018-09-25T07:11:17.744Z,31.19
2018-09-25T07:13:44.159Z,31.27
2018-09-25T07:16:10.892Z,31.18
2018-09-25T07:18:37.268Z,31.27
2018-09-25T07:21:03.715Z,31.02
2018-09-25T07:23:30.184Z,31.03
2018-09-25T07:25:56.703Z,30.94
2018-09-25T07:28:23.116Z,31.10
2018-09-25T07:30:49.476Z,31.03
2018-09-25T07:33:15.846Z,30.97
2018-09-25T07:35:42.193Z,30.88
2018-09-25T07:38:08.793Z,30.88
2018-09-25T07:40:35.146Z,30.87
2018-09-25T07:43:01.557Z,30.79
2018-09-25T07:45:27.899Z,30.71
2018-09-25T07:47:54.259Z,30.52
2018-09-25T07:50:20.689Z,30.59
2018-09-25T07:52:47.196Z,30.52
2018-09-25T07:55:13.667Z,30.65
2018-09-25T07:57:40.059Z,30.49
2018-09-25T08:00:06.686Z,30.58
2018-09-25T08:02:33.112Z,30.46
2018-09-25T08:04:59.570Z,30.41
2018-09-25T08:07:25.970Z,30.40
2018-09-25T08:09:52.411Z,30.47
2018-09-25T08:12:18.829Z,30.29
2018-09-25T08:14:45.201Z,30.29
2018-09-25T08:17:11.686Z,30.22
2018-09-25T08:19:38.154Z,30.29
2018-09-25T08:22:04.551Z,30.11
2018-09-25T08:24:31.008Z,29.90
2018-09-25T08:26:57.409Z,29.81
2018-09-25T08:29:23.795Z,29.87
2018-09-25T08:31:50.302Z,29.89
2018-09-25T08:34:16.697Z,29.83
2018-09-25T08:36:43.107Z,29.83
2018-09-25T08:39:09.562Z,29.79
2018-09-25T08:41:35.919Z,29.67
2018-09-25T08:44:02.341Z,29.72
2018-09-25T08:46:28.769Z,29.49
2018-09-25T08:48:55.221Z,29.50
2018-09-25T08:51:21.648Z,29.21
2018-09-25T08:53:48.052Z,29.21
2018-09-25T08:56:14.465Z,29.15
2018-09-25T08:58:40.840Z,29.28
2018-09-25T09:01:07.258Z,29.07
2018-09-25T09:03:33.679Z,29.14
2018-09-25T09:06:00.144Z,28.52
2018-09-25T09:08:26.599Z,28.80
2018-09-25T09:10:53.196Z,28.47
2018-09-25T09:13:19.649Z,28.40
2018-09-25T09:15:46.109Z,28.35
2018-09-25T09:18:12.525Z,28.63
2018-09-25T09:20:38.923Z,28.85
2018-09-25T09:23:05.386Z,28.24
2018-09-25T09:25:31.952Z,28.53
2018-09-25T09:27:58.455Z,28.33
2018-09-25T09:30:24.912Z,28.33
2018-09-25T09:32:51.321Z,28.58
2018-09-25T09:35:17.705Z,28.71
2018-09-25T09:37:44.140Z,28.56
2018-09-25T09:40:10.514Z,28.25
2018-09-25T09:42:36.979Z,28.67
2018-09-25T09:45:03.379Z,28.34
2018-09-25T09:47:29.935Z,27.84
2018-09-25T09:49:56.396Z,28.41
2018-09-25T09:52:22.969Z,28.29
2018-09-25T09:54:49.338Z,27.70
2018-09-25T09:57:15.702Z,27.95
2018-09-25T09:59:42.113Z,27.92
2018-09-25T10:02:08.563Z,27.66
2018-09-25T10:04:35.031Z,27.87
2018-09-25T10:07:01.437Z,27.88
2018-09-25T10:09:27.866Z,27.65
2018-09-25T10:11:54.247Z,27.43
2018-09-25T10:14:20.700Z,27.59
2018-09-25T10:16:47.161Z,27.07
2018-09-25T10:19:13.593Z,27.22
2018-09-25T10:21:40.109Z,27.10
2018-09-25T10:24:06.512Z,26.99
2018-09-25T10:26:32.917Z,26.80
2018-09-25T10:28:59.607Z,27.22
2018-09-25T10:31:25.997Z,26.93
2018-09-25T10:33:52.449Z,27.33
2018-09-25T10:36:18.904Z,26.76
2018-09-25T10:38:45.342Z,26.46
2018-09-25T10:41:11.867Z,26.67
2018-09-25T10:43:38.308Z,26.71
2018-09-25T10:46:04.744Z,26.92
2018-09-25T10:48:31.172Z,26.55
2018-09-25T10:50:57.589Z,26.55
2018-09-25T10:53:24.029Z,26.68
2018-09-25T10:55:50.518Z,26.29
2018-09-25T10:58:17.341Z,26.49
2018-09-25T11:00:43.902Z,26.03
2018-09-25T11:03:10.608Z,27.37
2018-09-25T11:05:36.937Z,26.71
2018-09-25T11:08:03.367Z,26.06
2018-09-25T11:10:29.879Z,26.47
2018-09-25T11:12:56.413Z,26.67
2018-09-25T11:15:22.764Z,26.51
2018-09-25T11:17:49.242Z,26.45
2018-09-25T11:20:15.554Z,25.58
2018-09-25T11:22:41.963Z,25.47
2018-09-25T11:25:08.336Z,26.00
2018-09-25T11:27:34.703Z,26.25
2018-09-25T11:30:01.097Z,26.13
2018-09-25T11:32:27.481Z,25.93
2018-09-25T11:34:54.051Z,25.99
2018-09-25T11:37:20.432Z,25.78
2018-09-25T11:39:46.871Z,25.89
2018-09-25T11:42:13.213Z,25.87
2018-09-25T11:44:39.599Z,25.43
2018-09-25T11:47:06.036Z,25.61
2018-09-25T11:49:32.356Z,25.54
2018-09-25T11:51:58.841Z,25.61
2018-09-25T11:54:25.228Z,25.65
2018-09-25T11:56:51.630Z,25.73
2018-09-25T11:59:18.020Z,25.31
2018-09-25T12:01:44.378Z,25.55
2018-09-25T12:04:10.752Z,25.38
2018-09-25T12:06:37.243Z,25.33
2018-09-25T12:09:05.442Z,25.38
2018-09-25T12:11:31.818Z,25.24
2018-09-25T12:13:58.187Z,25.17
2018-09-25T12:16:24.535Z,25.34
2018-09-25T12:18:51.021Z,25.36
2018-09-25T12:21:17.450Z,25.44
2018-09-25T12:23:43.918Z,25.30
2018-09-25T12:26:10.381Z,25.27
2018-09-25T12:28:36.823Z,25.26
2018-09-25T12:31:03.207Z,24.98
2018-09-25T12:33:29.619Z,25.18
2018-09-25T12:35:55.979Z,25.09
2018-09-25T12:38:22.468Z,25.22
2018-09-25T12:40:48.971Z,25.30
2018-09-25T12:43:15.349Z,25.42
2018-09-25T12:45:41.704Z,25.53
2018-09-25T12:48:08.107Z,25.86
2018-09-25T12:50:34.508Z,25.96
2018-09-25T12:53:00.910Z,25.80
2018-09-25T12:55:27.363Z,25.87
2018-09-25T12:57:53.744Z,26.33
2018-09-25T13:00:20.176Z,26.03
2018-09-25T13:02:46.610Z,26.10
2018-09-25T13:05:13.142Z,26.04
2018-09-25T13:07:39.575Z,25.68
2018-09-25T13:10:06.058Z,25.71
2018-09-25T13:12:32.440Z,25.88
2018-09-25T13:14:58.845Z,25.37
2018-09-25T13:17:25.310Z,25.82
2018-09-25T13:19:51.832Z,25.68
2018-09-25T13:22:18.275Z,25.72
2018-09-25T13:24:45.275Z,25.42
2018-09-25T13:27:11.806Z,25.75
2018-09-25T13:29:38.528Z,25.78
2018-09-25T13:32:05.061Z,25.36
2018-09-25T13:34:31.420Z,25.43
2018-09-25T13:36:57.815Z,25.17
2018-09-25T13:39:24.188Z,25.52
2018-09-25T13:41:50.599Z,25.67
2018-09-25T13:44:17.023Z,25.49
2018-09-25T13:46:43.376Z,25.26
2018-09-25T13:49:09.835Z,25.16
2018-09-25T13:51:36.219Z,25.10
2018-09-25T13:54:02.922Z,25.28
2018-09-25T13:56:30.353Z,25.01
2018-09-25T13:58:56.819Z,24.83
2018-09-25T14:01:23.208Z,25.18
2018-09-25T14:03:49.607Z,25.04
2018-09-25T14:06:16.198Z,25.20
2018-09-25T14:08:42.558Z,24.93
2018-09-25T14:11:08.878Z,25.00
2018-09-25T14:13:35.249Z,25.00
2018-09-25T14:16:01.612Z,24.96
2018-09-25T14:18:28.023Z,25.20
2018-09-25T14:20:54.376Z,24.57
2018-09-25T14:23:20.734Z,25.12
2018-09-25T14:25:47.174Z,25.11
2018-09-25T14:28:13.600Z,24.85
2018-09-25T14:30:40.035Z,24.80
2018-09-25T14:33:06.503Z,24.74
2018-09-25T14:35:32.903Z,24.85
2018-09-25T14:37:59.267Z,24.92
2018-09-25T14:40:25.596Z,24.76
2018-09-25T14:42:52.065Z,24.77
2018-09-25T14:45:18.484Z,24.40
2018-09-25T14:47:44.855Z,24.58
2018-09-25T14:50:11.205Z,24.55
2018-09-25T14:52:37.551Z,24.68
2018-09-25T14:55:03.922Z,24.62
2018-09-25T14:57:30.318Z,24.86
2018-09-25T14:59:56.784Z,24.77
2018-09-25T15:02:23.116Z,24.79
2018-09-25T15:04:49.472Z,24.74
2018-09-25T15:07:15.911Z,24.82
2018-09-25T15:09:42.270Z,24.80
2018-09-25T15:12:08.608Z,24.93
2018-09-25T15:14:35.008Z,24.64
2018-09-25T15:17:01.360Z,24.63
2018-09-25T15:19:27.710Z,24.82
2018-09-25T15:21:54.323Z,24.63
2018-09-25T15:24:20.470Z,24.50
2018-09-25T15:26:46.920Z,24.46
2018-09-25T15:29:13.398Z,24.77
2018-09-25T15:31:39.838Z,24.81
2018-09-25T15:34:06.180Z,24.89
2018-09-25T15:36:32.544Z,24.84
2018-09-25T15:38:58.951Z,24.72
2018-09-25T15:41:25.339Z,24.46
2018-09-25T15:43:51.673Z,24.55
2018-09-25T15:46:17.999Z,24.67
2018-09-25T15:48:44.452Z,24.57
2018-09-25T15:51:10.796Z,24.46
2018-09-25T15:53:37.147Z,24.61
2018-09-25T15:56:03.501Z,24.83
2018-09-25T15:58:29.864Z,24.58
2018-09-25T16:00:56.221Z,24.62
2018-09-25T16:03:22.652Z,24.79
2018-09-25T16:05:49.005Z,24.90
2018-09-25T16:08:15.340Z,24.75
2018-09-25T16:10:41.804Z,24.52
2018-09-25T16:13:08.142Z,24.80
2018-09-25T16:15:34.549Z,24.81
2018-09-25T16:18:00.928Z,24.64
2018-09-25T16:20:27.440Z,24.82
2018-09-25T16:22:53.785Z,24.74
2018-09-25T16:25:20.226Z,24.89
2018-09-25T16:27:46.596Z,24.63
2018-09-25T16:30:12.991Z,24.68
2018-09-25T16:32:39.358Z,24.92
2018-09-25T16:35:05.744Z,24.64
2018-09-25T16:37:32.128Z,24.85
2018-09-25T16:39:58.813Z,24.93
2018-09-25T16:42:25.161Z,24.75
2018-09-25T16:44:51.549Z,24.92
2018-09-25T16:47:17.882Z,24.93
2018-09-25T16:49:44.331Z,24.71
2018-09-25T16:52:10.680Z,24.87
2018-09-25T16:54:37.063Z,24.79
2018-09-25T16:57:03.476Z,25.01
2018-09-25T16:59:29.900Z,24.87
2018-09-25T17:01:56.251Z,24.55
2018-09-25T17:04:22.611Z,24.34
2018-09-25T17:06:48.996Z,24.93
2018-09-25T17:09:15.381Z,24.83
2018-09-25T17:11:41.828Z,25.04
2018-09-25T17:14:08.261Z,25.06
2018-09-25T17:16:34.691Z,24.80
2018-09-25T17:19:01.082Z,25.02
2018-09-25T17:21:27.459Z,24.96
2018-09-25T17:23:53.850Z,25.06
2018-09-25T17:26:20.328Z,25.07
2018-09-25T17:28:46.751Z,25.08
2018-09-25T17:31:13.082Z,25.18
2018-09-25T17:33:39.460Z,25.07
2018-09-25T17:36:05.871Z,25.04
2018-09-25T17:38:32.236Z,25.14
2018-09-25T17:40:58.616Z,25.08
2018-09-25T17:43:25.252Z,25.09
2018-09-25T17:45:51.622Z,25.00
2018-09-25T17:48:18.011Z,24.99
2018-09-25T17:50:44.518Z,24.89
2018-09-25T17:53:10.908Z,24.64
2018-09-25T17:55:37.318Z,24.68
2018-09-25T17:58:03.705Z,24.64
2018-09-25T18:00:30.042Z,24.67
2018-09-25T18:02:56.408Z,24.87
2018-09-25T18:05:22.772Z,24.64
2018-09-25T18:07:49.243Z,24.71
2018-09-25T18:10:15.597Z,24.74
2018-09-25T18:12:42.752Z,24.83
2018-09-25T18:15:09.140Z,24.67
2018-09-25T18:17:35.480Z,24.78
2018-09-25T18:20:01.845Z,24.99
2018-09-25T18:22:28.176Z,24.71
2018-09-25T18:24:54.543Z,24.88
2018-09-25T18:27:20.940Z,24.77
2018-09-25T18:29:47.318Z,24.90
2018-09-25T18:32:13.714Z,24.88
2018-09-25T18:34:40.180Z,24.93
2018-09-25T18:37:06.681Z,25.00
2018-09-25T18:39:33.071Z,24.97
2018-09-25T18:41:59.433Z,25.09
2018-09-25T18:44:25.867Z,25.05
2018-09-25T18:46:52.299Z,25.03
2018-09-25T18:49:18.837Z,25.07
2018-09-25T18:51:45.220Z,25.11
2018-09-25T18:54:11.640Z,25.18
2018-09-25T18:56:37.998Z,25.26
2018-09-25T18:59:04.376Z,25.28
2018-09-25T19:01:31.511Z,25.22
2018-09-25T19:03:57.890Z,25.19
2018-09-25T19:06:24.276Z,25.36
2018-09-25T19:08:50.752Z,25.18
2018-09-25T19:11:17.112Z,25.04
2018-09-25T19:13:43.500Z,25.25
2018-09-25T19:16:09.895Z,25.33
2018-09-25T19:18:36.278Z,25.23
2018-09-25T19:21:02.698Z,25.29
2018-09-25T19:23:29.221Z,25.42
2018-09-25T19:25:55.600Z,25.47
2018-09-25T19:28:22.028Z,25.23
2018-09-25T19:30:48.328Z,25.45
2018-09-25T19:33:14.669Z,25.14
2018-09-25T19:35:41.032Z,25.43
2018-09-25T19:38:07.432Z,25.24
2018-09-25T19:40:33.827Z,25.47
2018-09-25T19:43:00.189Z,25.60
2018-09-25T19:45:26.557Z,25.64
2018-09-25T19:47:52.916Z,25.47
2018-09-25T19:50:19.332Z,25.57
2018-09-25T19:52:45.670Z,25.63
2018-09-25T19:55:12.047Z,25.65
2018-09-25T19:57:38.512Z,25.55
2018-09-25T20:00:04.978Z,25.71
2018-09-25T20:02:31.489Z,25.58
2018-09-25T20:04:57.945Z,25.60
2018-09-25T20:07:24.297Z,25.64
2018-09-25T20:09:50.629Z,25.64
2018-09-25T20:12:17.003Z,25.63
2018-09-25T20:14:43.408Z,25.55
2018-09-25T20:17:09.891Z,25.64
2018-09-25T20:19:36.345Z,25.87
2018-09-25T20:22:02.666Z,25.80
2018-09-25T20:24:29.178Z,26.02
2018-09-25T20:26:55.516Z,25.89
2018-09-25T20:29:21.866Z,25.91
2018-09-25T20:31:48.221Z,25.95
2018-09-25T20:34:14.596Z,26.00
2018-09-25T20:36:41.015Z,25.99
2018-09-25T20:39:07.378Z,26.21
2018-09-25T20:41:33.772Z,26.24
2018-09-25T20:44:00.178Z,26.18
2018-09-25T20:46:26.571Z,26.35
2018-09-25T20:48:52.970Z,26.40
2018-09-25T20:51:19.429Z,26.34
2018-09-25T20:53:45.787Z,26.37
2018-09-25T20:56:12.234Z,26.48
2018-09-25T20:58:38.651Z,26.56
2018-09-25T21:01:05.026Z,26.46
2018-09-25T21:03:31.389Z,26.50
2018-09-25T21:05:57.726Z,26.59
2018-09-25T21:08:24.113Z,26.64
2018-09-25T21:10:50.504Z,26.71
2018-09-25T21:13:16.843Z,26.66
2018-09-25T21:15:43.292Z,26.68
2018-09-25T21:18:09.663Z,26.80
2018-09-25T21:20:36.222Z,26.77
2018-09-25T21:23:02.575Z,26.79
2018-09-25T21:25:28.955Z,26.88
2018-09-25T21:27:55.298Z,26.95
2018-09-25T21:30:21.734Z,27.01
2018-09-25T21:32:48.090Z,26.99
2018-09-25T21:35:14.497Z,27.05
2018-09-25T21:37:40.916Z,27.13
2018-09-25T21:40:07.406Z,27.05
2018-09-25T21:42:34.446Z,27.13
2018-09-25T21:45:00.928Z,27.11
2018-09-25T21:47:27.278Z,27.07
2018-09-25T21:49:53.661Z,27.14
2018-09-25T21:52:20.036Z,27.17
2018-09-25T21:54:46.499Z,27.27
2018-09-25T21:57:13.023Z,27.26
2018-09-25T21:59:39.292Z,27.31
2018-09-25T22:02:05.782Z,27.35
2018-09-25T22:04:32.312Z,27.38
2018-09-25T22:06:58.752Z,27.41
2018-09-25T22:09:25.285Z,27.39
2018-09-25T22:11:51.815Z,27.49
2018-09-25T22:14:18.174Z,27.51
2018-09-25T22:16:44.579Z,27.48
2018-09-25T22:19:10.959Z,27.60
2018-09-25T22:21:37.470Z,27.52
2018-09-25T22:24:03.835Z,27.56
2018-09-25T22:26:30.225Z,27.59
2018-09-25T22:28:56.680Z,27.65
2018-09-25T22:31:23.048Z,27.64
2018-09-25T22:33:49.462Z,27.74
2018-09-25T22:36:15.834Z,27.88
2018-09-25T22:38:42.198Z,27.80
2018-09-25T22:41:08.625Z,27.89
2018-09-25T22:43:35.052Z,27.87
2018-09-25T22:46:01.425Z,27.93
2018-09-25T22:48:27.815Z,27.92
2018-09-25T22:50:54.241Z,28.06
2018-09-25T22:53:20.622Z,28.05
2018-09-25T22:55:47.034Z,28.06
2018-09-25T22:58:13.409Z,28.20
2018-09-25T23:00:39.884Z,28.21
2018-09-25T23:03:06.243Z,28.24
2018-09-25T23:05:32.602Z,28.24
2018-09-25T23:07:58.987Z,28.36
2018-09-25T23:10:25.396Z,28.34
2018-09-25T23:12:51.755Z,28.36
2018-09-25T23:15:18.123Z,28.44
2018-09-25T23:17:44.537Z,28.48
2018-09-25T23:20:10.890Z,28.43
2018-09-25T23:22:37.295Z,28.53
2018-09-25T23:25:03.677Z,28.58
2018-09-25T23:27:30.080Z,28.59
2018-09-25T23:29:56.505Z,28.65
2018-09-25T23:32:22.866Z,28.71
2018-09-25T23:34:49.257Z,28.71
2018-09-25T23:37:15.631Z,28.76
2018-09-25T23:39:42.061Z,28.85
2018-09-25T23:42:08.418Z,28.86
2018-09-25T23:44:34.773Z,28.86
2018-09-25T23:47:01.133Z,28.88
2018-09-25T23:49:27.516Z,28.97
2018-09-25T23:51:53.875Z,29.04
2018-09-25T23:54:20.230Z,29.04
2018-09-25T23:56:46.703Z,29.09
2018-09-25T23:59:13.136Z,29.17
